Time;durP1;ratioP1;P1;durP2;ratioP2;P2;SDS_P1;SDS_P2;PMS_P1;PMS_P2;Temp;Humidity;BMP_temperature;BMP_pressure;BME280_temperature;BME280_humidity;BME280_pressure;Samples;Min_cycle;Max_cycle;Signal;HPM_P1;HPM_P2
2022/05/16 00:01:37;;;;;;;9.45;4.72;;;12.90;99.90;;;;;;5053023;28;20029;-48
2022/05/16 00:04:03;;;;;;;11.23;6.47;;;12.80;99.90;;;;;;5054450;28;20139;-49
2022/05/16 00:06:29;;;;;;;9.70;4.45;;;12.70;99.90;;;;;;5054488;28;20471;-47
2022/05/16 00:08:55;;;;;;;5.85;4.90;;;12.60;99.90;;;;;;5052026;28;20384;-48
2022/05/16 00:11:21;;;;;;;7.47;4.50;;;12.60;99.90;;;;;;5052303;28;20024;-50
2022/05/16 00:13:47;;;;;;;5.88;5.07;;;12.50;99.90;;;;;;5052615;28;20029;-49
2022/05/16 00:16:13;;;;;;;8.60;4.80;;;12.40;99.90;;;;;;5052865;28;20541;-53
2022/05/16 00:18:39;;;;;;;5.95;4.68;;;12.40;99.90;;;;;;5053646;28;20036;-48
2022/05/16 00:21:05;;;;;;;10.77;5.03;;;12.40;99.90;;;;;;5053610;28;20539;-49
2022/05/16 00:23:31;;;;;;;5.70;4.72;;;12.50;99.90;;;;;;5053828;28;20056;-52
2022/05/16 00:25:57;;;;;;;10.60;5.38;;;12.50;99.90;;;;;;5052486;28;20033;-51
2022/05/16 00:28:23;;;;;;;7.85;5.78;;;12.40;99.90;;;;;;5051764;28;20029;-48
2022/05/16 00:30:48;;;;;;;10.73;5.47;;;12.20;99.90;;;;;;5051674;28;20154;-53
2022/05/16 00:33:15;;;;;;;6.00;5.32;;;12.20;99.90;;;;;;5051677;28;20028;-48
2022/05/16 00:35:40;;;;;;;6.32;4.93;;;12.20;99.90;;;;;;5051417;28;20013;-51
2022/05/16 00:38:06;;;;;;;5.47;4.65;;;12.20;99.90;;;;;;5053649;28;20047;-46
2022/05/16 00:40:32;;;;;;;9.68;5.25;;;12.20;99.90;;;;;;5053454;28;20029;-50
2022/05/16 00:43:10;;;;;;;15.25;5.28;;;12.20;99.90;;;;;;5053920;28;20040;-51
2022/05/16 00:45:36;;;;;;;8.05;4.68;;;12.20;99.90;;;;;;5053396;28;20029;-50
2022/05/16 00:48:02;;;;;;;10.57;4.40;;;12.20;99.90;;;;;;5052389;28;20025;-47
2022/05/16 00:50:30;;;;;;;9.48;5.15;;;12.20;99.90;;;;;;5051540;28;20033;-50
2022/05/16 00:52:56;;;;;;;6.38;5.15;;;12.20;99.90;;;;;;5051905;28;20025;-49
2022/05/16 00:55:28;;;;;;;6.60;5.78;;;12.10;99.90;;;;;;5052526;28;20039;-49
2022/05/16 00:57:59;;;;;;;8.75;4.70;;;12.20;99.90;;;;;;5053494;28;20037;-51
2022/05/16 01:00:29;;;;;;;6.88;5.00;;;12.20;99.90;;;;;;5052928;28;20112;-49
2022/05/16 01:05:43;;;;;;;9.05;4.80;;;12.10;99.90;;;;;;5052377;28;20078;-47
2022/05/16 01:08:13;;;;;;;7.20;4.32;;;12.00;99.90;;;;;;5051616;28;20325;-50
2022/05/16 01:10:39;;;;;;;10.48;5.55;;;11.90;99.90;;;;;;5050769;28;20495;-47
2022/05/16 01:13:06;;;;;;;5.57;5.05;;;11.90;99.90;;;;;;5051504;28;20047;-46
2022/05/16 01:15:39;;;;;;;6.88;5.43;;;11.70;99.90;;;;;;5050215;28;20082;-49
2022/05/16 01:18:07;;;;;;;10.55;6.43;;;11.70;99.90;;;;;;5051331;28;20028;-49
2022/05/16 01:20:46;;;;;;;11.10;5.50;;;11.60;99.90;;;;;;5051327;28;20384;-48
2022/05/16 01:23:15;;;;;;;7.50;5.43;;;11.60;99.90;;;;;;5051296;28;20056;-47
2022/05/16 01:25:41;;;;;;;7.20;6.15;;;11.60;99.90;;;;;;5052090;28;20031;-48
2022/05/16 01:28:07;;;;;;;9.48;6.03;;;11.60;99.90;;;;;;5052987;28;20017;-48
2022/05/16 01:30:46;;;;;;;7.35;5.63;;;11.60;99.90;;;;;;5052625;28;20033;-49
2022/05/16 01:33:22;;;;;;;7.68;5.25;;;11.40;99.90;;;;;;5052187;28;20021;-46
2022/05/16 01:35:48;;;;;;;8.38;5.05;;;11.50;99.90;;;;;;5052363;28;20384;-49
2022/05/16 01:38:19;;;;;;;15.80;5.75;;;11.50;99.90;;;;;;5052747;28;20030;-51
2022/05/16 01:40:56;;;;;;;17.73;6.03;;;11.50;99.90;;;;;;5051984;28;20426;-46
2022/05/16 01:43:25;;;;;;;9.98;5.50;;;11.40;99.90;;;;;;5052651;28;20025;-51
2022/05/16 01:45:51;;;;;;;8.32;4.80;;;11.30;99.90;;;;;;5051369;28;20025;-46
2022/05/16 01:48:18;;;;;;;11.07;7.15;;;11.20;99.90;;;;;;5050945;28;20048;-47
2022/05/16 01:50:46;;;;;;;9.32;5.70;;;11.10;99.90;;;;;;5051294;28;20124;-47
2022/05/16 01:53:13;;;;;;;13.05;6.10;;;11.00;99.90;;;;;;5051334;28;20456;-49
2022/05/16 01:55:39;;;;;;;8.85;6.07;;;11.00;99.90;;;;;;5051311;28;20462;-49
2022/05/16 01:58:06;;;;;;;7.50;5.03;;;10.90;99.90;;;;;;5052172;28;20082;-50
2022/05/16 02:00:32;;;;;;;8.40;5.15;;;10.90;99.90;;;;;;5052130;28;20029;-49
2022/05/16 02:03:02;;;;;;;12.32;5.65;;;11.00;99.90;;;;;;5051406;28;20499;-46
2022/05/16 02:05:29;;;;;;;9.75;6.60;;;11.10;99.90;;;;;;5050827;28;20226;-47
2022/05/16 02:07:55;;;;;;;8.13;5.35;;;11.20;99.90;;;;;;5050896;28;20499;-49
2022/05/16 02:10:23;;;;;;;15.23;7.63;;;11.10;99.90;;;;;;5051274;28;20029;-51
2022/05/16 02:12:49;;;;;;;7.10;5.55;;;11.10;99.90;;;;;;5050686;28;20106;-51
2022/05/16 02:15:22;;;;;;;9.02;6.38;;;11.00;99.90;;;;;;5050992;28;20028;-48
2022/05/16 02:17:49;;;;;;;10.30;7.22;;;11.00;99.90;;;;;;5050728;28;20033;-48
2022/05/16 02:20:15;;;;;;;12.68;5.85;;;11.00;99.90;;;;;;5052157;28;20134;-49
2022/05/16 02:25:25;;;;;;;10.10;5.53;;;11.10;99.90;;;;;;5051912;28;20035;-49
2022/05/16 02:27:53;;;;;;;8.70;6.15;;;11.10;99.90;;;;;;5050499;28;20049;-46
2022/05/16 02:30:21;;;;;;;10.05;6.15;;;11.10;99.90;;;;;;5050755;28;20025;-52
2022/05/16 02:32:47;;;;;;;15.70;6.72;;;11.00;99.90;;;;;;5049940;28;20021;-47
2022/05/16 02:35:13;;;;;;;9.60;5.95;;;10.90;99.90;;;;;;5051725;28;20108;-47
2022/05/16 02:37:39;;;;;;;9.75;5.88;;;10.90;99.90;;;;;;5051422;28;20032;-53
2022/05/16 02:40:06;;;;;;;11.02;5.50;;;10.90;99.90;;;;;;5050854;28;20032;-47
2022/05/16 02:42:32;;;;;;;10.05;5.68;;;10.80;99.90;;;;;;5051302;28;20027;-50
2022/05/16 02:44:57;;;;;;;10.23;5.50;;;10.80;99.90;;;;;;5050579;28;20380;-48
2022/05/16 02:47:24;;;;;;;8.95;6.07;;;10.80;99.90;;;;;;5051287;28;20021;-50
2022/05/16 02:49:51;;;;;;;11.52;6.13;;;10.70;99.90;;;;;;5051342;28;20036;-47
2022/05/16 02:52:17;;;;;;;7.72;5.82;;;10.70;99.90;;;;;;5050206;28;20021;-48
2022/05/16 02:54:43;;;;;;;7.85;5.88;;;10.70;99.90;;;;;;5050124;28;20488;-48
2022/05/16 02:57:09;;;;;;;11.20;5.50;;;10.70;99.90;;;;;;5050521;28;20025;-49
2022/05/16 02:59:37;;;;;;;6.13;5.00;;;10.70;99.90;;;;;;5049184;28;20075;-47
2022/05/16 03:02:04;;;;;;;8.98;6.15;;;10.70;99.90;;;;;;5050153;28;20021;-47
2022/05/16 03:04:31;;;;;;;12.68;5.75;;;10.70;99.90;;;;;;5050768;28;20032;-53
2022/05/16 03:06:57;;;;;;;8.93;5.50;;;10.70;99.90;;;;;;5050552;28;20025;-53
2022/05/16 03:09:24;;;;;;;8.77;6.28;;;10.70;99.90;;;;;;5050038;28;20017;-49
2022/05/16 03:11:50;;;;;;;11.13;6.38;;;10.60;99.90;;;;;;5051115;28;20476;-51
2022/05/16 03:14:16;;;;;;;14.27;6.13;;;10.60;99.90;;;;;;5051466;28;20033;-48
2022/05/16 03:16:41;;;;;;;12.50;5.97;;;10.60;99.90;;;;;;5050774;28;20025;-51
2022/05/16 03:19:07;;;;;;;8.98;7.38;;;10.50;99.90;;;;;;5050690;28;20029;-49
2022/05/16 03:21:34;;;;;;;7.38;6.60;;;10.40;99.90;;;;;;5050447;28;20456;-47
2022/05/16 03:24:00;;;;;;;14.18;6.78;;;10.30;99.90;;;;;;5048604;28;20400;-50
2022/05/16 03:26:26;;;;;;;11.25;6.30;;;10.30;99.90;;;;;;5049486;28;20025;-49
2022/05/16 03:28:53;;;;;;;19.50;6.75;;;10.30;99.90;;;;;;5049936;28;20116;-48
2022/05/16 03:31:20;;;;;;;19.85;6.47;;;10.20;99.90;;;;;;5049740;28;20301;-46
2022/05/16 03:33:46;;;;;;;7.55;5.80;;;10.20;99.90;;;;;;5050190;28;20029;-50
2022/05/16 03:36:12;;;;;;;8.18;6.85;;;10.30;99.90;;;;;;5051030;28;20468;-47
2022/05/16 03:41:22;;;;;;;;;;;10.30;99.90;;;;;;5050422;28;20086;-46
2022/05/16 03:43:47;;;;;;;11.23;6.05;;;10.40;99.90;;;;;;5049806;28;19909;-47
2022/05/16 03:46:14;;;;;;;10.07;7.00;;;10.40;99.90;;;;;;5049477;28;20029;-51
2022/05/16 03:48:40;;;;;;;10.50;6.25;;;10.40;99.90;;;;;;5049856;28;20031;-47
2022/05/16 03:51:07;;;;;;;8.85;6.63;;;10.40;99.90;;;;;;5049782;28;20021;-47
2022/05/16 03:53:43;;;;;;;11.40;6.53;;;10.50;99.90;;;;;;5049641;28;20021;-47
2022/05/16 03:56:08;;;;;;;7.38;6.20;;;10.50;99.90;;;;;;5049199;28;20025;-49
2022/05/16 03:58:34;;;;;;;9.93;6.25;;;10.70;99.90;;;;;;5049490;28;20032;-48
2022/05/16 04:01:00;;;;;;;8.95;6.88;;;10.70;99.90;;;;;;5049313;28;20523;-49
2022/05/16 04:03:26;;;;;;;17.98;7.07;;;10.70;99.90;;;;;;5049522;28;20032;-53
2022/05/16 04:05:52;;;;;;;9.40;6.97;;;10.60;99.90;;;;;;5050087;28;20384;-52
2022/05/16 04:08:18;;;;;;;15.23;7.35;;;10.70;99.90;;;;;;5050576;28;20013;-52
2022/05/16 04:10:43;;;;;;;10.38;6.32;;;10.80;99.90;;;;;;5051018;28;20044;-50
2022/05/16 04:13:09;;;;;;;12.57;7.30;;;10.80;99.90;;;;;;5053951;28;20021;-51
2022/05/16 04:15:34;;;;;;;12.00;6.50;;;10.90;99.90;;;;;;5053620;28;20029;-52
2022/05/16 04:18:00;;;;;;;16.65;7.38;;;10.90;99.90;;;;;;5053886;28;20036;-49
2022/05/16 04:20:27;;;;;;;9.23;7.18;;;11.00;99.90;;;;;;5054109;28;20033;-52
2022/05/16 04:22:52;;;;;;;8.27;7.05;;;11.00;99.90;;;;;;5053548;28;20056;-48
2022/05/16 04:25:19;;;;;;;17.55;8.45;;;11.10;99.90;;;;;;5052862;28;20476;-52
2022/05/16 04:27:45;;;;;;;12.55;7.00;;;11.30;99.90;;;;;;5051053;28;20022;-49
2022/05/16 04:30:12;;;;;;;11.13;6.30;;;11.40;99.90;;;;;;5051968;28;20032;-50
2022/05/16 04:32:38;;;;;;;13.02;6.93;;;11.40;99.90;;;;;;5052179;28;20020;-52
2022/05/16 04:35:04;;;;;;;8.40;6.75;;;11.50;99.90;;;;;;5052498;28;20021;-52
2022/05/16 04:37:32;;;;;;;12.20;7.55;;;11.60;99.90;;;;;;5052342;28;20105;-50
2022/05/16 04:40:02;;;;;;;6.68;6.07;;;11.70;99.90;;;;;;5052271;28;20017;-53
2022/05/16 04:42:40;;;;;;;8.48;6.47;;;11.90;99.90;;;;;;5052251;28;20059;-50
2022/05/16 04:45:29;;;;;;;7.90;6.68;;;12.20;99.90;;;;;;5052328;28;20033;-52
2022/05/16 04:48:00;;;;;;;11.07;7.30;;;12.40;99.90;;;;;;5052146;28;20192;-48
2022/05/16 04:50:29;;;;;;;8.70;7.28;;;12.40;99.90;;;;;;5052366;28;20100;-48
2022/05/16 04:52:56;;;;;;;15.35;9.40;;;12.40;99.90;;;;;;5052378;28;20024;-50
2022/05/16 04:55:24;;;;;;;10.68;7.93;;;12.40;99.90;;;;;;5052213;28;20029;-49
2022/05/16 04:57:50;;;;;;;8.93;7.07;;;12.60;99.90;;;;;;5052113;28;20029;-49
2022/05/16 05:00:18;;;;;;;11.10;7.93;;;12.70;99.90;;;;;;5052177;28;20043;-49
2022/05/16 05:02:44;;;;;;;18.08;8.70;;;12.80;99.90;;;;;;5052124;28;20098;-49
2022/05/16 05:05:10;;;;;;;12.98;8.50;;;12.90;99.90;;;;;;5052219;28;20025;-49
2022/05/16 05:07:37;;;;;;;11.88;9.30;;;13.00;99.90;;;;;;5052103;28;20365;-53
2022/05/16 05:15:36;;;;;;;15.75;8.02;;;13.80;99.90;;;;;;5051981;28;20115;-48
2022/05/16 05:18:06;;;;;;;10.80;7.63;;;13.90;99.90;;;;;;5051834;28;20481;-51
2022/05/16 05:20:35;;;;;;;9.32;8.27;;;13.90;99.90;;;;;;5050638;28;20072;-49
2022/05/16 05:23:03;;;;;;;14.77;8.32;;;14.00;99.90;;;;;;5050770;28;20045;-48
2022/05/16 05:25:29;;;;;;;21.25;8.25;;;14.10;99.90;;;;;;5051620;28;20028;-55
2022/05/16 05:27:55;;;;;;;11.23;7.60;;;14.20;99.90;;;;;;5051458;28;20424;-50
2022/05/16 05:30:25;;;;;;;12.57;7.25;;;14.50;99.90;;;;;;5051599;28;20045;-53
2022/05/16 05:32:52;;;;;;;8.02;7.10;;;14.70;99.90;;;;;;5051476;28;20025;-49
2022/05/16 05:35:19;;;;;;;8.32;6.75;;;14.90;99.90;;;;;;5051609;28;20507;-51
2022/05/16 05:37:44;;;;;;;11.45;5.90;;;15.10;99.90;;;;;;5051574;28;20173;-52
2022/05/16 05:40:11;;;;;;;11.60;6.43;;;15.20;99.90;;;;;;5051433;28;20116;-52
2022/05/16 05:42:37;;;;;;;9.23;6.75;;;15.40;99.90;;;;;;5051448;28;20071;-51
2022/05/16 05:45:04;;;;;;;9.77;6.32;;;15.60;99.90;;;;;;5051243;28;20445;-55
2022/05/16 05:47:30;;;;;;;10.57;7.32;;;15.80;99.90;;;;;;5051253;28;20068;-50
2022/05/16 05:49:56;;;;;;;7.22;5.80;;;15.90;99.90;;;;;;5051386;28;20575;-53
2022/05/16 05:52:22;;;;;;;10.57;6.25;;;16.10;99.90;;;;;;5049803;28;20049;-50
2022/05/16 05:54:49;;;;;;;13.15;6.50;;;16.40;99.90;;;;;;5051131;28;20036;-52
2022/05/16 05:57:16;;;;;;;8.82;6.35;;;16.60;99.90;;;;;;5051124;28;20025;-53
2022/05/16 05:59:42;;;;;;;9.30;6.25;;;16.70;99.90;;;;;;5051174;28;20025;-52
2022/05/16 06:02:10;;;;;;;7.28;4.78;;;17.00;99.90;;;;;;5050981;28;20025;-50
2022/05/16 06:04:37;;;;;;;8.18;5.68;;;17.10;99.90;;;;;;5050912;28;20025;-52
2022/05/16 06:07:03;;;;;;;12.95;5.68;;;17.40;99.90;;;;;;5050962;28;20029;-52
2022/05/16 06:09:29;;;;;;;11.70;4.72;;;17.60;99.90;;;;;;5051122;28;20469;-52
2022/05/16 06:11:57;;;;;;;12.25;5.28;;;17.70;99.90;;;;;;5050664;28;20039;-54
2022/05/16 06:14:23;;;;;;;10.60;4.97;;;17.80;99.90;;;;;;5050890;28;20029;-54
2022/05/16 06:16:48;;;;;;;7.43;4.72;;;17.70;99.90;;;;;;5050800;28;20025;-52
2022/05/16 06:19:14;;;;;;;40.85;5.03;;;17.80;99.90;;;;;;5050846;28;20021;-53
2022/05/16 06:21:40;;;;;;;14.25;4.82;;;17.80;99.90;;;;;;5050625;28;20020;-52
2022/05/16 06:25:31;;;;;;;10.48;5.10;;;17.80;99.90;;;;;;5050738;28;20470;-51
2022/05/16 06:26:51;;;;;;;7.97;5.25;;;17.80;99.90;;;;;;5050376;28;20029;-50
2022/05/16 06:29:17;;;;;;;9.07;5.05;;;17.80;99.90;;;;;;5050583;28;20021;-50
2022/05/16 06:31:43;;;;;;;8.82;5.15;;;17.90;99.90;;;;;;5050613;28;20495;-54
2022/05/16 06:34:08;;;;;;;7.97;4.95;;;17.90;99.90;;;;;;5050483;28;20468;-48
2022/05/16 06:36:34;;;;;;;7.63;4.20;;;17.90;99.90;;;;;;5050531;28;20032;-53
2022/05/16 06:39:00;;;;;;;14.75;5.63;;;18.00;99.90;;;;;;5050282;28;20063;-54
2022/05/16 06:41:25;;;;;;;14.43;5.15;;;18.00;99.90;;;;;;5050457;28;20112;-51
2022/05/16 06:43:51;;;;;;;9.70;5.10;;;18.00;99.90;;;;;;5050183;28;20064;-50
2022/05/16 06:46:17;;;;;;;9.57;5.68;;;18.00;99.90;;;;;;5050191;28;20092;-51
2022/05/16 06:48:42;;;;;;;16.95;5.13;;;18.00;99.90;;;;;;5050293;28;20056;-53
2022/05/16 06:51:08;;;;;;;15.68;4.85;;;18.10;99.90;;;;;;5050209;28;20021;-53
2022/05/16 06:53:33;;;;;;;13.07;5.55;;;18.00;99.90;;;;;;5050116;28;20025;-51
2022/05/16 06:56:00;;;;;;;6.82;4.43;;;18.10;99.90;;;;;;5050410;28;20025;-48
2022/05/16 06:58:26;;;;;;;6.40;4.65;;;18.20;99.90;;;;;;5050492;28;20021;-48
2022/05/16 07:00:52;;;;;;;9.23;5.15;;;18.30;99.90;;;;;;5050394;28;20037;-52
2022/05/16 07:03:18;;;;;;;13.40;5.40;;;18.40;99.90;;;;;;5050162;28;20516;-50
2022/05/16 07:05:46;;;;;;;18.83;5.25;;;18.50;99.90;;;;;;5050062;28;20079;-50
2022/05/16 07:08:11;;;;;;;10.90;5.13;;;18.60;99.90;;;;;;5049955;28;20602;-49
2022/05/16 07:10:37;;;;;;;13.95;4.97;;;18.80;99.90;;;;;;5049870;28;20017;-54
2022/05/16 07:13:03;;;;;;;9.77;5.28;;;18.80;99.90;;;;;;5050127;28;20040;-51
2022/05/16 07:15:29;;;;;;;6.35;5.03;;;18.80;99.90;;;;;;5050162;28;20029;-50
2022/05/16 07:17:54;;;;;;;11.07;5.20;;;18.50;99.90;;;;;;5049873;28;20048;-51
2022/05/16 07:20:20;;;;;;;25.05;6.05;;;18.60;99.90;;;;;;5050007;28;20067;-54
2022/05/16 07:22:48;;;;;;;11.98;4.60;;;18.60;99.90;;;;;;5049769;28;20067;-53
2022/05/16 07:25:16;;;;;;;9.15;5.22;;;18.70;99.90;;;;;;5049725;28;20100;-50
2022/05/16 07:28:02;;;;;;;18.13;4.97;;;18.80;99.90;;;;;;5050021;28;20017;-53
2022/05/16 07:30:31;;;;;;;23.00;6.35;;;18.90;99.90;;;;;;5049962;28;20431;-48
2022/05/16 07:32:57;;;;;;;6.90;5.15;;;19.20;99.90;;;;;;5049848;28;20031;-52
2022/05/16 07:35:30;;;;;;;26.38;5.97;;;19.20;99.50;;;;;;5050038;28;20412;-49
2022/05/16 07:37:56;;;;;;;15.38;5.72;;;19.30;99.90;;;;;;5049534;28;20032;-54
2022/05/16 07:40:25;;;;;;;10.50;5.50;;;19.50;99.90;;;;;;5049979;28;20025;-51
2022/05/16 07:42:55;;;;;;;21.20;6.07;;;19.60;99.30;;;;;;5049695;28;20029;-52
2022/05/16 07:45:22;;;;;;;13.27;5.43;;;19.60;99.50;;;;;;5051064;28;20477;-51
2022/05/16 07:47:48;;;;;;;11.43;5.57;;;19.60;99.30;;;;;;5053635;28;20029;-51
2022/05/16 07:50:14;;;;;;;14.68;4.80;;;19.70;99.90;;;;;;5053477;28;20025;-54
2022/05/16 07:52:46;;;;;;;10.30;4.75;;;19.90;98.90;;;;;;5053459;28;20056;-51
2022/05/16 07:55:13;;;;;;;8.60;5.22;;;20.00;99.30;;;;;;5053411;28;20377;-52
2022/05/16 07:57:39;;;;;;;13.73;4.38;;;20.10;98.20;;;;;;5053442;28;20486;-53
2022/05/16 08:00:05;;;;;;;7.53;4.50;;;20.50;99.10;;;;;;5053305;28;20369;-52
2022/05/16 08:02:31;;;;;;;16.50;4.82;;;20.50;98.00;;;;;;5053382;28;20103;-51
2022/05/16 08:04:57;;;;;;;10.00;4.50;;;20.70;98.20;;;;;;5053172;28;20151;-50
2022/05/16 08:07:23;;;;;;;8.85;4.72;;;20.80;96.50;;;;;;5053098;28;20021;-54
2022/05/16 08:12:36;;;;;;;9.07;4.25;;;21.00;95.90;;;;;;5053594;28;20087;-56
2022/05/16 08:15:04;;;;;;;15.40;4.70;;;20.90;96.60;;;;;;5053027;28;20040;-50
2022/05/16 08:17:29;;;;;;;12.05;4.05;;;21.10;95.60;;;;;;5053003;28;20495;-53
2022/05/16 08:19:56;;;;;;;11.05;4.68;;;21.40;95.60;;;;;;5052851;28;20029;-51
2022/05/16 08:22:31;;;;;;;8.10;4.60;;;21.70;95.00;;;;;;5051404;28;20060;-54
2022/05/16 08:24:57;;;;;;;6.78;4.43;;;21.80;94.40;;;;;;5053191;28;20366;-56
2022/05/16 08:27:23;;;;;;;10.65;4.18;;;22.40;95.10;;;;;;5052887;28;20018;-51
2022/05/16 08:29:49;;;;;;;9.80;4.75;;;22.30;94.40;;;;;;5052627;28;20024;-52
2022/05/16 08:32:16;;;;;;;7.97;4.18;;;22.20;93.80;;;;;;5052913;28;20031;-53
2022/05/16 08:34:42;;;;;;;10.35;4.35;;;22.10;93.70;;;;;;5051401;28;20029;-51
2022/05/16 08:39:52;;;;;;;12.38;4.60;;;22.40;93.60;;;;;;5052612;28;20040;-49
2022/05/16 08:42:25;;;;;;;14.30;4.13;;;22.30;93.50;;;;;;5052582;28;20373;-50
2022/05/16 08:45:02;;;;;;;8.00;4.30;;;22.60;92.50;;;;;;5052087;28;20024;-53
2022/05/16 08:47:37;;;;;;;8.00;3.80;;;22.60;92.50;;;;;;5052403;28;20025;-54
2022/05/16 08:50:13;;;;;;;6.57;3.88;;;22.80;92.60;;;;;;5052252;28;20522;-54
2022/05/16 08:52:39;;;;;;;14.75;4.90;;;23.10;92.00;;;;;;5050787;28;20036;-54
2022/05/16 08:55:32;;;;;;;9.10;4.97;;;23.20;91.50;;;;;;5051501;28;20021;-54
2022/05/16 08:58:13;;;;;;;10.35;4.72;;;23.90;91.90;;;;;;5050923;28;20480;-52
2022/05/16 09:00:52;;;;;;;7.88;4.10;;;24.00;90.10;;;;;;5052334;28;20476;-53
2022/05/16 09:03:52;;;;;;;9.60;3.58;;;24.40;90.80;;;;;;5050788;28;20496;-52
2022/05/16 09:06:38;;;;;;;11.55;4.85;;;24.30;90.10;;;;;;5052207;28;20558;-55
2022/05/16 09:09:18;;;;;;;10.82;4.25;;;24.50;87.10;;;;;;5052110;28;20029;-53
2022/05/16 09:12:12;;;;;;;8.68;5.10;;;24.40;84.20;;;;;;5051967;28;20025;-51
2022/05/16 09:14:47;;;;;;;9.43;3.35;;;24.30;85.60;;;;;;5051910;28;20033;-56
2022/05/16 09:17:16;;;;;;;7.03;4.20;;;24.70;83.30;;;;;;5050627;28;20040;-52
2022/05/16 09:19:45;;;;;;;9.68;4.50;;;24.70;82.90;;;;;;5051958;28;20025;-53
2022/05/16 09:22:23;;;;;;;5.40;3.42;;;25.20;83.10;;;;;;5051589;28;20508;-53
2022/05/16 09:24:56;;;;;;;7.68;4.13;;;25.30;80.30;;;;;;5051920;28;20021;-54
2022/05/16 09:30:25;;;;;;;8.95;4.50;;;25.70;80.60;;;;;;5051921;28;20032;-55
2022/05/16 09:33:04;;;;;;;7.10;3.55;;;25.50;82.40;;;;;;5050049;28;20146;-55
2022/05/16 09:35:35;;;;;;;17.10;4.30;;;25.50;82.20;;;;;;5051796;28;20025;-55
2022/05/16 09:38:01;;;;;;;4.90;3.55;;;25.50;78.60;;;;;;5070432;28;20187;-53
2022/05/16 09:40:40;;;;;;;9.43;3.95;;;25.40;77.60;;;;;;5071959;28;20487;-54
2022/05/16 09:43:15;;;;;;;7.38;4.07;;;25.10;80.20;;;;;;5071960;28;20043;-56
2022/05/16 09:45:45;;;;;;;10.50;3.78;;;25.20;78.90;;;;;;5071170;28;20391;-52
2022/05/16 09:48:20;;;;;;;6.70;4.10;;;25.60;77.60;;;;;;5069894;28;20016;-56
2022/05/16 09:51:01;;;;;;;5.22;3.20;;;25.80;77.20;;;;;;5069998;28;20051;-53
2022/05/16 09:53:30;;;;;;;7.38;3.85;;;26.10;77.60;;;;;;5071357;28;20043;-52
2022/05/16 09:56:02;;;;;;;11.02;3.83;;;25.70;74.30;;;;;;5071070;28;20026;-55
2022/05/16 09:58:51;;;;;;;7.23;3.17;;;25.70;78.90;;;;;;5071054;28;20028;-56
2022/05/16 10:01:53;;;;;;;6.47;3.17;;;25.60;72.80;;;;;;5071109;28;20380;-53
2022/05/16 10:04:20;;;;;;;5.25;3.33;;;25.40;72.10;;;;;;5059004;28;20029;-55
2022/05/16 10:07:02;;;;;;;6.30;4.18;;;25.30;73.60;;;;;;5071112;28;20427;-53
2022/05/16 10:09:40;;;;;;;8.57;3.60;;;25.20;74.80;;;;;;5069493;28;20024;-54
2022/05/16 10:12:09;;;;;;;9.73;3.67;;;25.40;73.70;;;;;;5070868;28;20052;-57
2022/05/16 10:14:37;;;;;;;5.10;3.20;;;25.60;77.50;;;;;;5070944;28;20016;-57
2022/05/16 10:17:05;;;;;;;7.80;3.72;;;26.00;77.40;;;;;;5070530;28;20093;-56
2022/05/16 10:19:32;;;;;;;8.32;4.32;;;26.00;74.90;;;;;;5070250;28;20475;-54
2022/05/16 10:22:07;;;;;;;8.18;3.40;;;26.60;73.70;;;;;;5070516;28;20052;-51
2022/05/16 10:24:38;;;;;;;9.50;3.65;;;26.20;76.10;;;;;;5068961;28;20032;-53
2022/05/16 10:27:07;;;;;;;13.00;3.42;;;26.20;74.20;;;;;;5069199;28;20120;-54
2022/05/16 10:29:37;;;;;;;11.13;3.55;;;26.50;76.40;;;;;;5069032;28;20094;-54
2022/05/16 10:35:02;;;;;;;6.75;3.60;;;26.90;74.50;;;;;;5070418;28;20035;-53
2022/05/16 10:37:31;;;;;;;10.38;3.83;;;26.90;72.00;;;;;;5070705;28;20123;-56
2022/05/16 10:40:06;;;;;;;15.50;4.00;;;27.00;75.40;;;;;;5070607;28;20032;-54
2022/05/16 10:42:58;;;;;;;7.32;3.75;;;26.80;70.60;;;;;;5070372;28;20039;-56
2022/05/16 10:45:26;;;;;;;5.82;3.80;;;27.10;71.30;;;;;;5070355;28;20499;-53
2022/05/16 10:48:07;;;;;;;5.93;4.03;;;27.50;74.00;;;;;;5070313;28;20119;-56
2022/05/16 10:51:13;;;;;;;8.65;3.55;;;28.20;72.90;;;;;;5070317;28;20108;-55
2022/05/16 10:54:07;;;;;;;7.15;3.67;;;27.60;68.30;;;;;;5047582;28;20562;-56
2022/05/16 10:57:13;;;;;;;7.85;4.03;;;28.00;71.20;;;;;;5070266;28;20017;-56
2022/05/16 10:59:51;;;;;;;15.13;4.07;;;28.00;69.50;;;;;;5068846;28;20430;-54
2022/05/16 11:02:29;;;;;;;8.57;3.20;;;28.20;70.20;;;;;;5070197;28;20021;-57
2022/05/16 11:05:20;;;;;;;7.90;3.83;;;29.00;70.40;;;;;;5070061;28;20024;-56
2022/05/16 11:08:03;;;;;;;9.02;3.63;;;28.50;70.10;;;;;;5070149;28;20017;-55
2022/05/16 11:10:55;;;;;;;11.52;3.80;;;29.00;68.40;;;;;;5070324;28;20017;-54
2022/05/16 11:13:38;;;;;;;14.77;3.53;;;29.40;64.60;;;;;;5070311;28;20021;-55
2022/05/16 11:16:03;;;;;;;;;;;29.20;64.00;;;;;;5070556;28;20045;-56
2022/05/16 11:18:45;;;;;;;13.75;5.25;;;29.40;67.40;;;;;;5070185;28;20315;-54
2022/05/16 11:21:24;;;;;;;11.05;3.53;;;29.20;63.90;;;;;;5072911;28;20026;-54
2022/05/16 11:24:05;;;;;;;15.07;4.15;;;28.60;63.30;;;;;;5073786;28;20295;-54
2022/05/16 11:26:53;;;;;;;5.70;2.92;;;29.00;65.30;;;;;;5074120;28;20017;-58
2022/05/16 11:30:01;;;;;;;6.28;3.47;;;29.10;62.30;;;;;;5073971;28;20116;-51
2022/05/16 11:32:48;;;;;;;8.20;3.38;;;29.40;61.40;;;;;;5074105;28;20024;-55
2022/05/16 11:35:33;;;;;;;4.57;3.28;;;29.70;65.10;;;;;;5073742;28;20434;-56
2022/05/16 11:38:33;;;;;;;11.18;3.70;;;29.00;65.00;;;;;;5073779;28;20020;-55
2022/05/16 11:41:24;;;;;;;15.52;4.60;;;28.10;66.40;;;;;;5074044;28;20031;-57
2022/05/16 11:44:03;;;;;;;7.07;2.67;;;28.10;65.00;;;;;;5073651;28;20060;-56
2022/05/16 11:46:35;;;;;;;4.18;3.50;;;28.30;61.80;;;;;;5073823;28;20162;-57
2022/05/16 11:49:33;;;;;;;12.73;4.25;;;28.60;65.20;;;;;;5073720;28;20551;-54
2022/05/16 11:52:17;;;;;;;6.47;3.72;;;27.40;67.40;;;;;;5073505;28;20020;-52
2022/05/16 12:00:58;;;;;;;10.38;4.10;;;28.60;64.40;;;;;;5073479;28;20110;-56
2022/05/16 12:03:43;;;;;;;7.35;3.80;;;30.50;66.50;;;;;;5073487;28;20020;-57
2022/05/16 12:06:23;;;;;;;8.07;3.85;;;31.60;61.00;;;;;;5073317;28;20111;-54
2022/05/16 12:08:49;;;;;;;5.80;3.70;;;29.40;61.00;;;;;;5073078;28;20016;-56
2022/05/16 12:11:21;;;;;;;7.03;4.13;;;29.10;63.10;;;;;;5073371;28;20396;-51
2022/05/16 12:14:20;;;;;;;12.48;3.83;;;27.90;63.50;;;;;;5073171;28;20035;-54
2022/05/16 12:16:55;;;;;;;8.73;4.40;;;28.20;64.70;;;;;;5073107;28;20036;-53
2022/05/16 12:19:30;;;;;;;8.50;4.38;;;26.90;64.80;;;;;;5071777;28;20025;-53
2022/05/16 12:22:06;;;;;;;11.85;3.40;;;26.30;67.10;;;;;;5072673;28;20023;-54
2022/05/16 12:24:41;;;;;;;11.70;3.17;;;26.40;64.30;;;;;;5073090;28;20443;-56
2022/05/16 12:27:16;;;;;;;8.88;2.78;;;27.40;62.30;;;;;;5072839;28;20103;-56
2022/05/16 12:29:49;;;;;;;11.32;2.80;;;28.10;61.60;;;;;;5073034;28;20024;-56
2022/05/16 12:32:44;;;;;;;7.32;2.10;;;29.30;59.00;;;;;;5072788;28;20013;-55
2022/05/16 12:35:11;;;;;;;4.00;2.20;;;30.90;56.60;;;;;;5064414;28;20127;-53
2022/05/16 12:37:40;;;;;;;13.57;2.70;;;32.10;55.80;;;;;;5072698;28;20390;-55
2022/05/16 12:40:17;;;;;;;6.85;3.03;;;31.40;53.40;;;;;;5072846;28;20642;-56
2022/05/16 12:42:49;;;;;;;9.20;2.65;;;30.30;54.70;;;;;;5072601;28;20048;-54
2022/05/16 12:45:24;;;;;;;5.40;2.63;;;30.10;56.40;;;;;;5072537;28;20497;-55
2022/05/16 12:48:00;;;;;;;4.07;2.45;;;29.90;56.50;;;;;;5072320;28;20096;-57
2022/05/16 12:50:38;;;;;;;6.07;3.17;;;31.00;56.80;;;;;;5072431;28;20062;-51
2022/05/16 12:53:36;;;;;;;12.32;2.90;;;30.80;55.80;;;;;;5072449;28;20074;-54
2022/05/16 12:56:39;;;;;;;6.00;2.92;;;30.20;57.00;;;;;;5070213;28;20111;-55
2022/05/16 12:59:17;;;;;;;7.47;3.92;;;30.80;58.00;;;;;;5072443;28;20023;-53
2022/05/16 13:02:01;;;;;;;9.65;4.30;;;28.70;58.70;;;;;;5072155;28;20499;-55
2022/05/16 13:04:53;;;;;;;7.35;3.53;;;27.80;60.30;;;;;;5072127;28;20040;-53
2022/05/16 13:07:32;;;;;;;8.05;3.70;;;27.70;63.50;;;;;;5072383;28;20489;-55
2022/05/16 13:10:17;;;;;;;7.60;3.88;;;27.60;62.90;;;;;;5072128;28;20392;-48
2022/05/16 13:12:55;;;;;;;7.13;4.32;;;27.60;63.20;;;;;;5071996;28;20028;-53
2022/05/16 13:15:41;;;;;;;7.25;3.58;;;27.40;64.50;;;;;;5072140;28;20492;-52
2022/05/16 13:18:18;;;;;;;10.18;3.92;;;27.00;63.60;;;;;;5072118;28;20028;-56
2022/05/16 13:20:44;;;;;;;8.25;3.85;;;26.90;63.10;;;;;;5071930;28;20488;-56
2022/05/16 13:23:13;;;;;;;6.65;3.28;;;27.60;64.30;;;;;;5071986;28;20102;-56
2022/05/16 13:31:07;;;;;;;12.32;3.67;;;29.00;60.60;;;;;;5071924;28;20058;-55
2022/05/16 13:33:39;;;;;;;14.30;3.45;;;30.10;60.40;;;;;;5071623;28;20024;-54
2022/05/16 13:36:20;;;;;;;7.65;2.15;;;30.30;58.50;;;;;;5071580;28;20027;-56
2022/05/16 13:39:19;;;;;;;6.18;2.38;;;30.20;55.00;;;;;;5071410;28;20111;-54
2022/05/16 13:41:57;;;;;;;5.15;2.22;;;30.20;55.50;;;;;;5070152;28;20239;-53